sensor_id;sensor_type;location;lat;lon;timestamp;pressure;altitude;pressure_sealevel;temperature;humidity
9474;BME280;8865;47.636;7.692;2023-06-04T00:02:25;98093.84;;;16.65;100.00
9474;BME280;8865;47.636;7.692;2023-06-04T00:04:51;98098.47;;;16.63;100.00
9474;BME280;8865;47.636;7.692;2023-06-04T00:07:17;98094.38;;;16.60;100.00
9474;BME280;8865;47.636;7.692;2023-06-04T00:09:45;98091.22;;;16.57;100.00
9474;BME280;8865;47.636;7.692;2023-06-04T00:12:13;98090.41;;;16.56;100.00
9474;BME280;8865;47.636;7.692;2023-06-04T00:14:39;98100.53;;;16.53;100.00
9474;BME280;8865;47.636;7.692;2023-06-04T00:17:05;98093.75;;;16.50;100.00
9474;BME280;8865;47.636;7.692;2023-06-04T00:19:31;98100.53;;;16.53;100.00
9474;BME280;8865;47.636;7.692;2023-06-04T00:21:59;98106.34;;;16.48;100.00
9474;BME280;8865;47.636;7.692;2023-06-04T00:24:25;98097.28;;;16.42;100.00
9474;BME280;8865;47.636;7.692;2023-06-04T00:26:52;98094.50;;;16.36;100.00
9474;BME280;8865;47.636;7.692;2023-06-04T00:29:18;98097.50;;;16.33;100.00
9474;BME280;8865;47.636;7.692;2023-06-04T00:31:44;98096.19;;;16.29;100.00
9474;BME280;8865;47.636;7.692;2023-06-04T00:34:10;98094.22;;;16.22;100.00
9474;BME280;8865;47.636;7.692;2023-06-04T00:36:37;98091.75;;;16.21;100.00
9474;BME280;8865;47.636;7.692;2023-06-04T00:39:03;98095.09;;;16.15;100.00
9474;BME280;8865;47.636;7.692;2023-06-04T00:41:30;98093.78;;;16.11;100.00
9474;BME280;8865;47.636;7.692;2023-06-04T00:43:56;98091.47;;;16.07;100.00
9474;BME280;8865;47.636;7.692;2023-06-04T00:46:25;98093.66;;;16.04;100.00
9474;BME280;8865;47.636;7.692;2023-06-04T00:48:53;98099.78;;;15.96;100.00
9474;BME280;8865;47.636;7.692;2023-06-04T00:51:19;98101.13;;;15.92;100.00
9474;BME280;8865;47.636;7.692;2023-06-04T00:53:49;98102.31;;;15.89;100.00
9474;BME280;8865;47.636;7.692;2023-06-04T00:56:16;98104.44;;;15.86;100.00
9474;BME280;8865;47.636;7.692;2023-06-04T00:58:43;98103.97;;;15.82;100.00
9474;BME280;8865;47.636;7.692;2023-06-04T01:01:35;98107.09;;;15.78;100.00
9474;BME280;8865;47.636;7.692;2023-06-04T01:04:04;98100.81;;;15.70;100.00
9474;BME280;8865;47.636;7.692;2023-06-04T01:06:39;98103.78;;;15.67;100.00
9474;BME280;8865;47.636;7.692;2023-06-04T01:09:10;98106.78;;;15.64;100.00
9474;BME280;8865;47.636;7.692;2023-06-04T01:11:39;98106.78;;;15.64;100.00
9474;BME280;8865;47.636;7.692;2023-06-04T01:14:08;98107.09;;;15.61;100.00
9474;BME280;8865;47.636;7.692;2023-06-04T01:16:39;98100.66;;;15.56;100.00
9474;BME280;8865;47.636;7.692;2023-06-04T01:19:16;98107.44;;;15.58;100.00
9474;BME280;8865;47.636;7.692;2023-06-04T01:21:50;98106.97;;;15.54;100.00
9474;BME280;8865;47.636;7.692;2023-06-04T01:24:21;98109.09;;;15.51;100.00
9474;BME280;8865;47.636;7.692;2023-06-04T01:26:52;98109.78;;;15.53;100.00
9474;BME280;8865;47.636;7.692;2023-06-04T01:29:22;98114.38;;;15.51;100.00
9474;BME280;8865;47.636;7.692;2023-06-04T01:31:51;98118.19;;;15.48;100.00
9474;BME280;8865;47.636;7.692;2023-06-04T01:34:18;98120.31;;;15.45;100.00
9474;BME280;8865;47.636;7.692;2023-06-04T01:36:44;98121.34;;;15.44;100.00
9474;BME280;8865;47.636;7.692;2023-06-04T01:39:10;98115.53;;;15.40;100.00
9474;BME280;8865;47.636;7.692;2023-06-04T01:41:36;98123.78;;;15.37;100.00
9474;BME280;8865;47.636;7.692;2023-06-04T01:44:02;98125.13;;;15.33;100.00
9474;BME280;8865;47.636;7.692;2023-06-04T01:46:28;98115.56;;;15.32;100.00
9474;BME280;8865;47.636;7.692;2023-06-04T01:48:55;98117.38;;;15.31;100.00
9474;BME280;8865;47.636;7.692;2023-06-04T01:51:21;98111.28;;;15.23;100.00
9474;BME280;8865;47.636;7.692;2023-06-04T01:53:47;98116.72;;;15.21;100.00
9474;BME280;8865;47.636;7.692;2023-06-04T01:56:14;98129.59;;;15.16;100.00
9474;BME280;8865;47.636;7.692;2023-06-04T01:58:40;98122.97;;;15.12;100.00
9474;BME280;8865;47.636;7.692;2023-06-04T02:01:06;98130.09;;;15.11;100.00
9474;BME280;8865;47.636;7.692;2023-06-04T02:03:32;98136.84;;;15.06;100.00
9474;BME280;8865;47.636;7.692;2023-06-04T02:06:04;98132.22;;;14.99;100.00
9474;BME280;8865;47.636;7.692;2023-06-04T02:08:34;98135.66;;;15.00;100.00
9474;BME280;8865;47.636;7.692;2023-06-04T02:11:01;98136.00;;;14.97;100.00
9474;BME280;8865;47.636;7.692;2023-06-04T02:13:27;98133.50;;;14.95;100.00
9474;BME280;8865;47.636;7.692;2023-06-04T02:15:53;98133.03;;;14.92;100.00
9474;BME280;8865;47.636;7.692;2023-06-04T02:18:20;98139.44;;;14.89;100.00
9474;BME280;8865;47.636;7.692;2023-06-04T02:20:51;98132.53;;;14.88;100.00
9474;BME280;8865;47.636;7.692;2023-06-04T02:23:18;98138.78;;;14.87;100.00
9474;BME280;8865;47.636;7.692;2023-06-04T02:25:46;98137.28;;;14.85;100.00
9474;BME280;8865;47.636;7.692;2023-06-04T02:28:13;98143.72;;;14.82;100.00
9474;BME280;8865;47.636;7.692;2023-06-04T02:30:39;98135.81;;;14.82;100.00
9474;BME280;8865;47.636;7.692;2023-06-04T02:33:05;98142.41;;;14.78;100.00
9474;BME280;8865;47.636;7.692;2023-06-04T02:35:31;98139.13;;;14.76;100.00
9474;BME280;8865;47.636;7.692;2023-06-04T02:37:58;98143.38;;;14.69;100.00
9474;BME280;8865;47.636;7.692;2023-06-04T02:40:25;98146.81;;;14.69;100.00
9474;BME280;8865;47.636;7.692;2023-06-04T02:42:55;98145.47;;;14.65;100.00
9474;BME280;8865;47.636;7.692;2023-06-04T02:45:22;98148.28;;;14.63;100.00
9474;BME280;8865;47.636;7.692;2023-06-04T02:47:48;98149.44;;;14.61;100.00
9474;BME280;8865;47.636;7.692;2023-06-04T02:50:15;98154.72;;;14.61;100.00
9474;BME280;8865;47.636;7.692;2023-06-04T02:52:41;98157.81;;;14.56;100.00
9474;BME280;8865;47.636;7.692;2023-06-04T02:55:08;98160.28;;;14.58;100.00
9474;BME280;8865;47.636;7.692;2023-06-04T02:57:35;98161.56;;;14.54;100.00
9474;BME280;8865;47.636;7.692;2023-06-04T03:00:03;98166.19;;;14.52;100.00
9474;BME280;8865;47.636;7.692;2023-06-04T03:02:42;98157.91;;;14.46;100.00
9474;BME280;8865;47.636;7.692;2023-06-04T03:05:11;98162.53;;;14.44;100.00
9474;BME280;8865;47.636;7.692;2023-06-04T03:07:41;98166.16;;;14.43;100.00
9474;BME280;8865;47.636;7.692;2023-06-04T03:10:10;98156.44;;;14.44;100.00
9474;BME280;8865;47.636;7.692;2023-06-04T03:12:36;98161.50;;;14.37;100.00
9474;BME280;8865;47.636;7.692;2023-06-04T03:15:03;98163.66;;;14.34;100.00
9474;BME280;8865;47.636;7.692;2023-06-04T03:17:30;98165.47;;;14.33;100.00
9474;BME280;8865;47.636;7.692;2023-06-04T03:19:57;98161.81;;;14.34;100.00
9474;BME280;8865;47.636;7.692;2023-06-04T03:22:23;98161.81;;;14.34;100.00
9474;BME280;8865;47.636;7.692;2023-06-04T03:24:50;98161.66;;;14.36;100.00
9474;BME280;8865;47.636;7.692;2023-06-04T03:27:16;98165.63;;;14.32;100.00
9474;BME280;8865;47.636;7.692;2023-06-04T03:29:42;98167.25;;;14.33;100.00
9474;BME280;8865;47.636;7.692;2023-06-04T03:32:08;98173.16;;;14.26;100.00
9474;BME280;8865;47.636;7.692;2023-06-04T03:34:34;98172.84;;;14.29;100.00
9474;BME280;8865;47.636;7.692;2023-06-04T03:37:00;98185.66;;;14.24;100.00
9474;BME280;8865;47.636;7.692;2023-06-04T03:39:27;98188.81;;;14.28;100.00
9474;BME280;8865;47.636;7.692;2023-06-04T03:41:53;98189.66;;;14.28;100.00
9474;BME280;8865;47.636;7.692;2023-06-04T03:44:20;98195.88;;;14.27;100.00
9474;BME280;8865;47.636;7.692;2023-06-04T03:46:47;98193.41;;;14.26;100.00
9474;BME280;8865;47.636;7.692;2023-06-04T03:49:13;98193.72;;;14.23;100.00
9474;BME280;8865;47.636;7.692;2023-06-04T03:51:41;98199.00;;;14.23;100.00
9474;BME280;8865;47.636;7.692;2023-06-04T03:54:07;98193.72;;;14.23;100.00
9474;BME280;8865;47.636;7.692;2023-06-04T03:56:33;98200.81;;;14.22;100.00
9474;BME280;8865;47.636;7.692;2023-06-04T03:58:59;98201.63;;;14.23;100.00
9474;BME280;8865;47.636;7.692;2023-06-04T04:01:26;98200.28;;;14.19;100.00
9474;BME280;8865;47.636;7.692;2023-06-04T04:03:54;98209.84;;;14.20;100.00
9474;BME280;8865;47.636;7.692;2023-06-04T04:06:21;98207.88;;;14.22;100.00
9474;BME280;8865;47.636;7.692;2023-06-04T04:08:47;98214.00;;;14.22;100.00
9474;BME280;8865;47.636;7.692;2023-06-04T04:11:15;98218.09;;;14.25;100.00
9474;BME280;8865;47.636;7.692;2023-06-04T04:13:43;98211.84;;;14.26;100.00
9474;BME280;8865;47.636;7.692;2023-06-04T04:16:10;98217.63;;;14.29;100.00
9474;BME280;8865;47.636;7.692;2023-06-04T04:18:36;98219.13;;;14.32;100.00
9474;BME280;8865;47.636;7.692;2023-06-04T04:21:03;98221.75;;;14.32;100.00
9474;BME280;8865;47.636;7.692;2023-06-04T04:23:30;98220.00;;;14.41;100.00
9474;BME280;8865;47.636;7.692;2023-06-04T04:25:59;98224.66;;;14.47;100.00
9474;BME280;8865;47.636;7.692;2023-06-04T04:28:27;98220.38;;;14.54;100.00
9474;BME280;8865;47.636;7.692;2023-06-04T04:30:55;98216.75;;;14.55;100.00
9474;BME280;8865;47.636;7.692;2023-06-04T04:33:28;98225.72;;;14.62;100.00
9474;BME280;8865;47.636;7.692;2023-06-04T04:35:58;98215.84;;;14.64;100.00
9474;BME280;8865;47.636;7.692;2023-06-04T04:38:25;98219.97;;;14.67;100.00
9474;BME280;8865;47.636;7.692;2023-06-04T04:40:52;98223.75;;;14.73;100.00
9474;BME280;8865;47.636;7.692;2023-06-04T04:43:31;98232.84;;;14.78;100.00
9474;BME280;8865;47.636;7.692;2023-06-04T04:45:58;98221.00;;;14.82;100.00
9474;BME280;8865;47.636;7.692;2023-06-04T04:48:24;98223.50;;;14.84;100.00
9474;BME280;8865;47.636;7.692;2023-06-04T04:50:50;98223.81;;;14.89;100.00
9474;BME280;8865;47.636;7.692;2023-06-04T04:53:16;98218.59;;;14.97;100.00
9474;BME280;8865;47.636;7.692;2023-06-04T04:55:43;98226.16;;;14.92;100.00
9474;BME280;8865;47.636;7.692;2023-06-04T04:58:09;98220.06;;;15.00;100.00
9474;BME280;8865;47.636;7.692;2023-06-04T05:00:36;98217.63;;;15.07;100.00
9474;BME280;8865;47.636;7.692;2023-06-04T05:03:02;98212.53;;;15.22;100.00
9474;BME280;8865;47.636;7.692;2023-06-04T05:05:28;98220.78;;;15.35;100.00
9474;BME280;8865;47.636;7.692;2023-06-04T05:07:54;98220.47;;;15.54;100.00
9474;BME280;8865;47.636;7.692;2023-06-04T05:10:20;98224.25;;;15.68;100.00
9474;BME280;8865;47.636;7.692;2023-06-04T05:12:53;98220.63;;;15.86;100.00
9474;BME280;8865;47.636;7.692;2023-06-04T05:15:20;98219.78;;;16.10;100.00
9474;BME280;8865;47.636;7.692;2023-06-04T05:17:46;98218.91;;;16.26;100.00
9474;BME280;8865;47.636;7.692;2023-06-04T05:20:13;98215.88;;;16.46;100.00
9474;BME280;8865;47.636;7.692;2023-06-04T05:22:41;98218.75;;;16.67;100.00
9474;BME280;8865;47.636;7.692;2023-06-04T05:25:08;98215.22;;;16.91;100.00
9474;BME280;8865;47.636;7.692;2023-06-04T05:27:34;98221.00;;;17.18;100.00
9474;BME280;8865;47.636;7.692;2023-06-04T05:30:04;98221.00;;;17.41;100.00
9474;BME280;8865;47.636;7.692;2023-06-04T05:32:30;98226.78;;;17.45;100.00
9474;BME280;8865;47.636;7.692;2023-06-04T05:34:58;98227.34;;;17.55;100.00
9474;BME280;8865;47.636;7.692;2023-06-04T05:37:26;98228.88;;;17.73;100.00
9474;BME280;8865;47.636;7.692;2023-06-04T05:39:55;98228.41;;;17.92;100.00
9474;BME280;8865;47.636;7.692;2023-06-04T05:42:22;98222.47;;;18.05;100.00
9474;BME280;8865;47.636;7.692;2023-06-04T05:44:49;98225.41;;;18.10;100.00
9474;BME280;8865;47.636;7.692;2023-06-04T05:47:16;98225.03;;;18.13;100.00
9474;BME280;8865;47.636;7.692;2023-06-04T05:49:42;98222.31;;;18.22;100.00
9474;BME280;8865;47.636;7.692;2023-06-04T05:52:08;98217.47;;;18.25;100.00
9474;BME280;8865;47.636;7.692;2023-06-04T05:54:34;98220.19;;;18.32;100.00
9474;BME280;8865;47.636;7.692;2023-06-04T05:57:03;98219.22;;;18.33;100.00
9474;BME280;8865;47.636;7.692;2023-06-04T05:59:30;98223.50;;;18.34;100.00
9474;BME280;8865;47.636;7.692;2023-06-04T06:01:56;98222.78;;;18.40;100.00
9474;BME280;8865;47.636;7.692;2023-06-04T06:04:22;98218.66;;;18.37;100.00
9474;BME280;8865;47.636;7.692;2023-06-04T06:06:48;98213.09;;;18.32;100.00
9474;BME280;8865;47.636;7.692;2023-06-04T06:09:15;98211.69;;;18.36;100.00
9474;BME280;8865;47.636;7.692;2023-06-04T06:11:45;98212.06;;;18.48;100.00
9474;BME280;8865;47.636;7.692;2023-06-04T06:14:11;98211.44;;;18.46;100.00
9474;BME280;8865;47.636;7.692;2023-06-04T06:16:37;98214.97;;;18.53;100.00
9474;BME280;8865;47.636;7.692;2023-06-04T06:19:03;98210.78;;;18.59;100.00
9474;BME280;8865;47.636;7.692;2023-06-04T06:21:29;98216.81;;;18.68;100.00
9474;BME280;8865;47.636;7.692;2023-06-04T06:23:55;98219.84;;;18.65;100.00
9474;BME280;8865;47.636;7.692;2023-06-04T06:26:21;98218.97;;;18.79;100.00
9474;BME280;8865;47.636;7.692;2023-06-04T06:28:51;98221.09;;;18.69;100.00
9474;BME280;8865;47.636;7.692;2023-06-04T06:31:17;98225.84;;;18.73;100.00
9474;BME280;8865;47.636;7.692;2023-06-04T06:33:43;98214.72;;;18.63;100.00
9474;BME280;8865;47.636;7.692;2023-06-04T06:36:12;98221.94;;;18.69;100.00
9474;BME280;8865;47.636;7.692;2023-06-04T06:38:39;98232.97;;;18.73;100.00
9474;BME280;8865;47.636;7.692;2023-06-04T06:41:06;98232.69;;;18.83;100.00
9474;BME280;8865;47.636;7.692;2023-06-04T06:43:32;98225.22;;;18.86;100.00
9474;BME280;8865;47.636;7.692;2023-06-04T06:45:59;98228.84;;;19.00;100.00
9474;BME280;8865;47.636;7.692;2023-06-04T06:48:25;98234.69;;;19.11;100.00
9474;BME280;8865;47.636;7.692;2023-06-04T06:50:51;98228.63;;;19.17;100.00
9474;BME280;8865;47.636;7.692;2023-06-04T06:53:17;98231.69;;;19.35;100.00
9474;BME280;8865;47.636;7.692;2023-06-04T06:55:43;98228.19;;;19.35;100.00
9474;BME280;8865;47.636;7.692;2023-06-04T06:58:09;98226.19;;;19.37;100.00
9474;BME280;8865;47.636;7.692;2023-06-04T07:00:36;98222.56;;;19.66;100.00
9474;BME280;8865;47.636;7.692;2023-06-04T07:03:02;98221.72;;;19.66;100.00
9474;BME280;8865;47.636;7.692;2023-06-04T07:05:28;98227.41;;;19.84;100.00
9474;BME280;8865;47.636;7.692;2023-06-04T07:07:55;98229.56;;;19.95;100.00
9474;BME280;8865;47.636;7.692;2023-06-04T07:10:23;98227.13;;;20.01;100.00
9474;BME280;8865;47.636;7.692;2023-06-04T07:12:50;98230.50;;;20.16;100.00
9474;BME280;8865;47.636;7.692;2023-06-04T07:15:16;98232.88;;;20.32;100.00
9474;BME280;8865;47.636;7.692;2023-06-04T07:17:42;98225.19;;;20.51;100.00
9474;BME280;8865;47.636;7.692;2023-06-04T07:20:08;98221.66;;;20.79;100.00
9474;BME280;8865;47.636;7.692;2023-06-04T07:22:35;98226.91;;;21.07;100.00
9474;BME280;8865;47.636;7.692;2023-06-04T07:25:01;98221.41;;;21.35;100.00
9474;BME280;8865;47.636;7.692;2023-06-04T07:27:27;98223.13;;;21.63;100.00
9474;BME280;8865;47.636;7.692;2023-06-04T07:29:53;98218.41;;;21.79;100.00
9474;BME280;8865;47.636;7.692;2023-06-04T07:32:20;98219.81;;;21.88;100.00
9474;BME280;8865;47.636;7.692;2023-06-04T07:34:47;98218.78;;;22.02;100.00
9474;BME280;8865;47.636;7.692;2023-06-04T07:37:13;98222.88;;;22.11;100.00
9474;BME280;8865;47.636;7.692;2023-06-04T07:39:41;98218.38;;;22.32;100.00
9474;BME280;8865;47.636;7.692;2023-06-04T07:42:07;98231.44;;;22.54;100.00
9474;BME280;8865;47.636;7.692;2023-06-04T07:47:02;98224.94;;;22.88;100.00
9474;BME280;8865;47.636;7.692;2023-06-04T07:49:28;98223.09;;;22.82;100.00
9474;BME280;8865;47.636;7.692;2023-06-04T07:51:54;98217.47;;;23.04;100.00
9474;BME280;8865;47.636;7.692;2023-06-04T07:54:20;98221.25;;;23.28;100.00
9474;BME280;8865;47.636;7.692;2023-06-04T07:56:46;98217.47;;;23.42;100.00
9474;BME280;8865;47.636;7.692;2023-06-04T07:59:13;98216.94;;;23.59;100.00
9474;BME280;8865;47.636;7.692;2023-06-04T08:01:39;98222.25;;;23.65;100.00
9474;BME280;8865;47.636;7.692;2023-06-04T08:04:05;98220.66;;;23.58;100.00
9474;BME280;8865;47.636;7.692;2023-06-04T08:06:31;98222.13;;;23.53;100.00
9474;BME280;8865;47.636;7.692;2023-06-04T08:08:57;98222.72;;;23.56;100.00
9474;BME280;8865;47.636;7.692;2023-06-04T08:11:23;98220.03;;;23.56;99.60
9474;BME280;8865;47.636;7.692;2023-06-04T08:13:50;98212.44;;;23.52;97.67
9474;BME280;8865;47.636;7.692;2023-06-04T08:16:16;98214.47;;;23.57;99.59
9474;BME280;8865;47.636;7.692;2023-06-04T08:18:42;98216.63;;;23.74;100.00
9474;BME280;8865;47.636;7.692;2023-06-04T08:21:10;98220.38;;;23.66;98.72
9474;BME280;8865;47.636;7.692;2023-06-04T08:23:37;98220.31;;;23.72;98.17
9474;BME280;8865;47.636;7.692;2023-06-04T08:26:03;98222.41;;;23.70;98.41
9474;BME280;8865;47.636;7.692;2023-06-04T08:28:29;98206.56;;;23.69;92.83
9474;BME280;8865;47.636;7.692;2023-06-04T08:30:55;98204.72;;;23.69;96.60
9474;BME280;8865;47.636;7.692;2023-06-04T08:33:21;98209.91;;;23.39;100.00
9474;BME280;8865;47.636;7.692;2023-06-04T08:35:48;98208.53;;;23.55;96.70
9474;BME280;8865;47.636;7.692;2023-06-04T08:38:14;98197.69;;;23.75;94.72
9474;BME280;8865;47.636;7.692;2023-06-04T08:40:40;98203.53;;;23.91;88.94
9474;BME280;8865;47.636;7.692;2023-06-04T08:43:07;98201.13;;;23.82;94.05
9474;BME280;8865;47.636;7.692;2023-06-04T08:45:38;98203.03;;;24.00;94.10
9474;BME280;8865;47.636;7.692;2023-06-04T08:48:09;98207.06;;;24.10;91.60
9474;BME280;8865;47.636;7.692;2023-06-04T08:50:39;98208.50;;;24.31;96.24
9474;BME280;8865;47.636;7.692;2023-06-04T08:53:07;98208.94;;;24.46;87.05
9474;BME280;8865;47.636;7.692;2023-06-04T08:55:34;98208.66;;;24.54;90.33
9474;BME280;8865;47.636;7.692;2023-06-04T08:58:01;98206.28;;;24.65;87.64
9474;BME280;8865;47.636;7.692;2023-06-04T09:00:28;98201.38;;;24.62;89.66
9474;BME280;8865;47.636;7.692;2023-06-04T09:02:54;98205.69;;;24.81;83.69
9474;BME280;8865;47.636;7.692;2023-06-04T09:05:22;98202.94;;;24.69;74.89
9474;BME280;8865;47.636;7.692;2023-06-04T09:07:52;98209.94;;;24.70;69.56
9474;BME280;8865;47.636;7.692;2023-06-04T09:10:22;98208.25;;;24.57;68.66
9474;BME280;8865;47.636;7.692;2023-06-04T09:12:51;98197.44;;;24.64;70.51
9474;BME280;8865;47.636;7.692;2023-06-04T09:15:18;98202.56;;;24.66;68.04
9474;BME280;8865;47.636;7.692;2023-06-04T09:17:44;98199.69;;;24.98;71.06
9474;BME280;8865;47.636;7.692;2023-06-04T09:20:23;98193.50;;;25.27;71.94
9474;BME280;8865;47.636;7.692;2023-06-04T09:22:50;98204.06;;;25.41;68.08
9474;BME280;8865;47.636;7.692;2023-06-04T09:25:26;98197.19;;;25.45;66.94
9474;BME280;8865;47.636;7.692;2023-06-04T09:27:54;98201.16;;;25.42;65.05
9474;BME280;8865;47.636;7.692;2023-06-04T09:30:22;98200.13;;;25.67;70.14
9474;BME280;8865;47.636;7.692;2023-06-04T09:32:48;98190.56;;;25.59;67.22
9474;BME280;8865;47.636;7.692;2023-06-04T09:35:18;98194.56;;;26.04;71.61
9474;BME280;8865;47.636;7.692;2023-06-04T09:37:55;98195.00;;;26.36;70.86
9474;BME280;8865;47.636;7.692;2023-06-04T09:40:23;98185.84;;;26.61;62.13
9474;BME280;8865;47.636;7.692;2023-06-04T09:42:51;98184.56;;;26.76;61.71
9474;BME280;8865;47.636;7.692;2023-06-04T09:45:27;98179.75;;;27.06;64.83
9474;BME280;8865;47.636;7.692;2023-06-04T09:47:55;98181.72;;;27.28;65.94
9474;BME280;8865;47.636;7.692;2023-06-04T09:50:31;98181.03;;;27.33;63.28
9474;BME280;8865;47.636;7.692;2023-06-04T09:52:59;98177.13;;;27.40;58.58
9474;BME280;8865;47.636;7.692;2023-06-04T09:55:26;98172.06;;;27.78;62.81
9474;BME280;8865;47.636;7.692;2023-06-04T09:57:53;98173.91;;;28.11;58.95
9474;BME280;8865;47.636;7.692;2023-06-04T10:00:21;98170.13;;;28.29;63.07
9474;BME280;8865;47.636;7.692;2023-06-04T10:02:55;98171.19;;;28.50;59.68
9474;BME280;8865;47.636;7.692;2023-06-04T10:05:22;98167.41;;;28.51;53.58
9474;BME280;8865;47.636;7.692;2023-06-04T10:07:51;98171.41;;;28.66;56.62
9474;BME280;8865;47.636;7.692;2023-06-04T10:10:25;98179.47;;;28.66;55.75
9474;BME280;8865;47.636;7.692;2023-06-04T10:13:09;98175.34;;;29.08;55.52
9474;BME280;8865;47.636;7.692;2023-06-04T10:15:37;98174.78;;;29.33;53.90
9474;BME280;8865;47.636;7.692;2023-06-04T10:18:05;98171.69;;;29.51;51.64
9474;BME280;8865;47.636;7.692;2023-06-04T10:20:32;98166.72;;;29.70;53.02
9474;BME280;8865;47.636;7.692;2023-06-04T10:23:00;98170.06;;;29.83;52.96
9474;BME280;8865;47.636;7.692;2023-06-04T10:25:26;98163.38;;;29.90;50.12
9474;BME280;8865;47.636;7.692;2023-06-04T10:27:52;98173.72;;;30.09;47.58
9474;BME280;8865;47.636;7.692;2023-06-04T10:30:19;98163.53;;;30.26;45.97
9474;BME280;8865;47.636;7.692;2023-06-04T10:32:45;98157.88;;;30.33;45.68
9474;BME280;8865;47.636;7.692;2023-06-04T10:35:12;98156.91;;;30.50;45.36
9474;BME280;8865;47.636;7.692;2023-06-04T10:37:40;98154.47;;;30.48;44.98
9474;BME280;8865;47.636;7.692;2023-06-04T10:40:06;98155.94;;;30.18;48.27
9474;BME280;8865;47.636;7.692;2023-06-04T10:42:42;98147.84;;;30.23;45.35
9474;BME280;8865;47.636;7.692;2023-06-04T10:45:09;98150.09;;;30.37;47.37
9474;BME280;8865;47.636;7.692;2023-06-04T10:47:35;98161.53;;;29.64;44.17
9474;BME280;8865;47.636;7.692;2023-06-04T10:50:13;98156.94;;;29.32;47.38
9474;BME280;8865;47.636;7.692;2023-06-04T10:52:53;98160.81;;;29.79;47.85
9474;BME280;8865;47.636;7.692;2023-06-04T10:55:20;98155.28;;;29.96;45.91
9474;BME280;8865;47.636;7.692;2023-06-04T11:00:22;98165.47;;;30.36;45.67
9474;BME280;8865;47.636;7.692;2023-06-04T11:02:50;98159.13;;;30.05;40.18
9474;BME280;8865;47.636;7.692;2023-06-04T11:05:16;98148.03;;;30.59;42.73
9474;BME280;8865;47.636;7.692;2023-06-04T11:07:47;98148.19;;;31.21;43.50
9474;BME280;8865;47.636;7.692;2023-06-04T11:10:16;98140.31;;;31.71;39.83
9474;BME280;8865;47.636;7.692;2023-06-04T11:12:49;98144.91;;;31.86;36.08
9474;BME280;8865;47.636;7.692;2023-06-04T11:15:19;98144.66;;;31.26;36.71
9474;BME280;8865;47.636;7.692;2023-06-04T11:17:50;98143.28;;;31.23;37.95
9474;BME280;8865;47.636;7.692;2023-06-04T11:20:18;98145.56;;;30.53;36.27
9474;BME280;8865;47.636;7.692;2023-06-04T11:22:58;98142.28;;;30.40;36.60
9474;BME280;8865;47.636;7.692;2023-06-04T11:25:30;98137.31;;;31.01;39.33
9474;BME280;8865;47.636;7.692;2023-06-04T11:28:00;98155.47;;;31.10;35.09
9474;BME280;8865;47.636;7.692;2023-06-04T11:30:27;98141.59;;;30.86;35.61
9474;BME280;8865;47.636;7.692;2023-06-04T11:33:01;98144.03;;;30.93;36.66
9474;BME280;8865;47.636;7.692;2023-06-04T11:35:27;98142.75;;;31.16;37.37
9474;BME280;8865;47.636;7.692;2023-06-04T11:37:55;98132.19;;;31.50;35.51
9474;BME280;8865;47.636;7.692;2023-06-04T11:40:21;98128.06;;;31.99;36.53
9474;BME280;8865;47.636;7.692;2023-06-04T11:42:48;98127.00;;;32.61;35.68
9474;BME280;8865;47.636;7.692;2023-06-04T11:45:19;98133.09;;;32.92;36.67
9474;BME280;8865;47.636;7.692;2023-06-04T11:47:55;98128.81;;;33.20;38.30
9474;BME280;8865;47.636;7.692;2023-06-04T11:50:23;98132.63;;;33.54;34.32
9474;BME280;8865;47.636;7.692;2023-06-04T11:52:51;98132.97;;;33.71;32.47
9474;BME280;8865;47.636;7.692;2023-06-04T11:55:18;98124.66;;;33.33;31.48
9474;BME280;8865;47.636;7.692;2023-06-04T11:57:47;98118.00;;;33.15;32.43
9474;BME280;8865;47.636;7.692;2023-06-04T12:00:15;98118.81;;;33.50;33.41
9474;BME280;8865;47.636;7.692;2023-06-04T12:02:54;98120.31;;;33.91;32.20
9474;BME280;8865;47.636;7.692;2023-06-04T12:05:23;98127.84;;;33.75;31.48
9474;BME280;8865;47.636;7.692;2023-06-04T12:08:04;98121.06;;;34.21;36.01
9474;BME280;8865;47.636;7.692;2023-06-04T12:10:37;98117.00;;;34.18;33.59
9474;BME280;8865;47.636;7.692;2023-06-04T12:13:03;98111.25;;;34.25;35.13
9474;BME280;8865;47.636;7.692;2023-06-04T12:15:29;98100.59;;;34.66;36.80
9474;BME280;8865;47.636;7.692;2023-06-04T12:17:56;98102.88;;;35.16;36.26
9474;BME280;8865;47.636;7.692;2023-06-04T12:20:36;98108.56;;;35.67;36.83
9474;BME280;8865;47.636;7.692;2023-06-04T12:23:03;98103.63;;;36.10;36.25
9474;BME280;8865;47.636;7.692;2023-06-04T12:25:30;98102.72;;;36.43;36.21
9474;BME280;8865;47.636;7.692;2023-06-04T12:27:57;98104.44;;;36.89;34.67
9474;BME280;8865;47.636;7.692;2023-06-04T12:30:34;98095.13;;;37.35;34.82
9474;BME280;8865;47.636;7.692;2023-06-04T12:33:01;98093.94;;;37.59;31.57
9474;BME280;8865;47.636;7.692;2023-06-04T12:35:27;98092.94;;;37.78;32.77
9474;BME280;8865;47.636;7.692;2023-06-04T12:37:54;98091.41;;;38.03;30.59
9474;BME280;8865;47.636;7.692;2023-06-04T12:40:20;98099.69;;;38.20;30.14
9474;BME280;8865;47.636;7.692;2023-06-04T12:42:50;98093.13;;;38.39;31.59
9474;BME280;8865;47.636;7.692;2023-06-04T12:45:16;98092.78;;;38.23;29.62
9474;BME280;8865;47.636;7.692;2023-06-04T12:47:43;98092.97;;;38.35;30.76
9474;BME280;8865;47.636;7.692;2023-06-04T12:50:09;98091.81;;;38.28;30.55
9474;BME280;8865;47.636;7.692;2023-06-04T12:52:36;98092.69;;;38.05;29.55
9474;BME280;8865;47.636;7.692;2023-06-04T12:55:02;98080.94;;;37.96;31.24
9474;BME280;8865;47.636;7.692;2023-06-04T12:57:29;98078.34;;;37.91;31.68
9474;BME280;8865;47.636;7.692;2023-06-04T12:59:55;98079.03;;;37.65;30.90
9474;BME280;8865;47.636;7.692;2023-06-04T13:02:23;98081.41;;;37.27;30.82
9474;BME280;8865;47.636;7.692;2023-06-04T13:04:49;98080.47;;;36.86;31.47
9474;BME280;8865;47.636;7.692;2023-06-04T13:07:19;98087.53;;;36.51;32.58
9474;BME280;8865;47.636;7.692;2023-06-04T13:09:45;98080.00;;;36.20;33.43
9474;BME280;8865;47.636;7.692;2023-06-04T13:12:11;98075.31;;;35.84;32.73
9474;BME280;8865;47.636;7.692;2023-06-04T13:14:39;98071.81;;;35.50;34.73
9474;BME280;8865;47.636;7.692;2023-06-04T13:17:05;98075.22;;;35.28;35.29
9474;BME280;8865;47.636;7.692;2023-06-04T13:19:31;98070.22;;;35.16;33.54
9474;BME280;8865;47.636;7.692;2023-06-04T13:21:58;98073.22;;;35.15;35.09
9474;BME280;8865;47.636;7.692;2023-06-04T13:24:24;98070.38;;;35.06;35.42